Time;durP1;ratioP1;P1;durP2;ratioP2;P2;SDS_P1;SDS_P2;PMS_P1;PMS_P2;Temp;Humidity;BMP_temperature;BMP_pressure;BME280_temperature;BME280_humidity;BME280_pressure;Samples;Min_cycle;Max_cycle;Signal;HPM_P1;HPM_P2
2022/04/18 00:02:04;;;;;;;7.30;6.28;;;14.30;41.00;;;;;;5151844;27;20490;-64
2022/04/18 00:04:29;;;;;;;7.30;5.47;;;14.30;41.00;;;;;;5152193;27;20042;-66
2022/04/18 00:06:55;;;;;;;7.30;5.95;;;14.30;41.00;;;;;;5153352;27;20535;-65
2022/04/18 00:09:20;;;;;;;7.68;5.93;;;14.30;41.00;;;;;;5151870;27;20042;-65
2022/04/18 00:11:46;;;;;;;7.00;5.55;;;14.30;41.00;;;;;;5153115;27;20039;-66
2022/04/18 00:14:12;;;;;;;7.10;6.03;;;14.30;41.10;;;;;;5151846;27;20046;-65
2022/04/18 00:16:41;;;;;;;7.88;6.40;;;14.20;41.00;;;;;;5152107;27;20030;-66
2022/04/18 00:19:06;;;;;;;7.15;5.82;;;14.20;41.10;;;;;;5153094;27;20042;-65
2022/04/18 00:21:32;;;;;;;6.03;5.38;;;14.20;41.10;;;;;;5153370;27;20379;-66
2022/04/18 00:23:57;;;;;;;6.70;5.88;;;14.30;41.20;;;;;;5151840;27;20397;-66
2022/04/18 00:26:23;;;;;;;6.50;5.55;;;14.20;41.10;;;;;;5153017;27;20031;-63
2022/04/18 00:28:49;;;;;;;6.25;5.53;;;14.20;41.20;;;;;;5151827;27;20486;-63
2022/04/18 00:31:14;;;;;;;6.72;5.30;;;14.20;41.20;;;;;;5151924;27;20051;-66
2022/04/18 00:33:40;;;;;;;6.75;5.97;;;14.20;41.30;;;;;;5151474;27;20034;-66
2022/04/18 00:36:06;;;;;;;7.30;5.90;;;14.20;41.20;;;;;;5151858;27;20080;-63
2022/04/18 00:38:31;;;;;;;8.38;6.68;;;14.20;41.30;;;;;;5152115;27;20054;-65
2022/04/18 00:41:00;;;;;;;6.63;5.35;;;14.20;41.30;;;;;;5156783;27;20030;-66
2022/04/18 00:46:20;;;;;;;7.07;6.38;;;14.20;41.30;;;;;;5101650;27;20377;-60
2022/04/18 00:48:48;;;;;;;7.10;5.75;;;14.10;41.30;;;;;;5102061;28;20373;-62
2022/04/18 00:51:17;;;;;;;6.15;5.55;;;14.10;41.40;;;;;;5068078;28;20049;-63
2022/04/18 00:53:44;;;;;;;6.93;6.18;;;14.10;41.40;;;;;;5101665;28;20044;-63
2022/04/18 00:56:13;;;;;;;7.68;6.47;;;14.10;41.40;;;;;;5068994;28;20388;-61
2022/04/18 00:58:46;;;;;;;6.68;5.78;;;14.00;41.30;;;;;;5067757;28;20099;-65
2022/04/18 01:01:12;;;;;;;7.28;6.57;;;14.10;41.50;;;;;;5069080;28;20128;-64
2022/04/18 01:03:38;;;;;;;6.75;5.97;;;14.10;41.50;;;;;;5069147;28;20461;-63
2022/04/18 01:06:04;;;;;;;8.13;6.20;;;14.00;41.40;;;;;;5068780;28;20072;-65
2022/04/18 01:08:33;;;;;;;7.40;5.95;;;14.00;41.50;;;;;;5067836;28;20048;-64
2022/04/18 01:10:59;;;;;;;7.18;5.78;;;14.00;41.50;;;;;;5068789;28;20037;-60
2022/04/18 01:13:26;;;;;;;6.57;5.88;;;14.00;41.50;;;;;;5067474;28;20037;-64
2022/04/18 01:15:54;;;;;;;6.30;5.63;;;14.00;41.50;;;;;;5068760;28;20051;-61
2022/04/18 01:18:20;;;;;;;6.78;5.80;;;14.00;41.50;;;;;;5101258;28;20123;-60
2022/04/18 01:20:46;;;;;;;7.18;6.47;;;14.00;41.50;;;;;;5068749;28;20120;-63
2022/04/18 01:23:13;;;;;;;7.53;6.47;;;13.90;41.50;;;;;;5067489;28;20159;-65
2022/04/18 01:28:58;;;;;;;7.28;6.47;;;13.90;41.50;;;;;;5066978;28;20045;-63
2022/04/18 01:31:13;;;;;;;8.45;6.47;;;13.90;41.50;;;;;;5101105;28;20049;-64
2022/04/18 01:33:38;;;;;;;6.78;5.93;;;13.90;41.50;;;;;;5066993;28;20090;-64
2022/04/18 01:36:05;;;;;;;6.80;6.10;;;13.90;41.50;;;;;;5067041;28;20037;-64
2022/04/18 01:38:31;;;;;;;6.78;6.10;;;13.90;41.60;;;;;;5067119;28;20051;-63
2022/04/18 01:40:56;;;;;;;7.97;7.18;;;13.90;41.60;;;;;;5068112;28;20481;-63
2022/04/18 01:43:22;;;;;;;7.72;6.90;;;13.90;41.50;;;;;;5068060;28;20572;-64
2022/04/18 01:45:48;;;;;;;6.95;6.25;;;13.90;41.50;;;;;;5100390;28;20055;-64
2022/04/18 01:48:17;;;;;;;6.82;6.15;;;13.90;41.50;;;;;;5067856;28;20128;-64
2022/04/18 01:50:42;;;;;;;7.82;6.50;;;13.90;41.60;;;;;;5066667;28;20484;-64
2022/04/18 01:53:08;;;;;;;7.38;6.35;;;13.80;41.50;;;;;;5066538;28;20048;-63
2022/04/18 01:55:34;;;;;;;6.65;5.90;;;13.80;41.60;;;;;;5066280;28;20041;-64
2022/04/18 01:58:00;;;;;;;8.07;6.40;;;13.80;41.60;;;;;;5086887;28;20052;-64
2022/04/18 02:00:26;;;;;;;6.93;6.10;;;13.80;41.60;;;;;;5054724;28;20032;-64
2022/04/18 02:02:52;;;;;;;7.70;6.22;;;13.80;41.60;;;;;;5086464;28;20387;-64
2022/04/18 02:05:18;;;;;;;7.35;6.63;;;13.80;41.60;;;;;;5053438;28;20045;-65
2022/04/18 02:07:43;;;;;;;6.80;6.07;;;13.80;41.60;;;;;;5053384;28;20539;-61
2022/04/18 02:10:09;;;;;;;7.03;6.18;;;13.80;42.40;;;;;;5053392;28;20557;-63
2022/04/18 02:12:35;;;;;;;7.10;6.45;;;13.80;41.60;;;;;;5054458;28;20049;-65
2022/04/18 02:15:04;;;;;;;7.68;6.63;;;13.80;41.60;;;;;;5054363;28;20374;-64
2022/04/18 02:17:30;;;;;;;7.45;6.75;;;13.80;41.60;;;;;;5054306;28;20098;-64
2022/04/18 02:19:56;;;;;;;6.82;6.13;;;13.70;41.60;;;;;;5053111;28;20037;-64
2022/04/18 02:22:22;;;;;;;7.18;6.35;;;13.80;41.70;;;;;;5053002;28;20499;-64
2022/04/18 02:24:48;;;;;;;7.82;6.30;;;13.80;41.70;;;;;;5053905;28;20393;-64
2022/04/18 02:27:14;;;;;;;8.10;6.43;;;13.80;41.70;;;;;;5054277;28;20033;-60
2022/04/18 02:29:40;;;;;;;7.30;6.28;;;13.70;41.60;;;;;;5052234;28;20029;-66
2022/04/18 02:34:51;;;;;;;6.57;5.97;;;13.70;41.70;;;;;;5052557;28;20459;-65
2022/04/18 02:37:20;;;;;;;8.52;6.10;;;13.70;41.70;;;;;;5052877;28;20124;-63
2022/04/18 02:39:46;;;;;;;7.70;6.43;;;13.70;41.70;;;;;;5052749;28;20036;-64
2022/04/18 02:42:12;;;;;;;6.80;5.55;;;13.70;41.70;;;;;;5052564;28;20455;-63
2022/04/18 02:44:37;;;;;;;7.13;6.13;;;13.70;41.70;;;;;;5052309;28;20136;-63
2022/04/18 02:47:03;;;;;;;7.93;7.07;;;13.70;41.80;;;;;;5053815;28;20400;-63
2022/04/18 02:49:30;;;;;;;8.18;6.95;;;13.70;41.70;;;;;;5052304;28;20044;-63
2022/04/18 02:51:56;;;;;;;7.05;6.18;;;13.70;41.70;;;;;;5052610;28;20045;-64
2022/04/18 02:54:22;;;;;;;7.20;6.30;;;13.70;41.70;;;;;;5053470;28;20032;-64
2022/04/18 02:56:50;;;;;;;8.23;6.43;;;13.70;41.70;;;;;;5051885;28;20535;-65
2022/04/18 02:59:16;;;;;;;8.05;6.40;;;13.70;41.70;;;;;;5053343;28;20094;-63
2022/04/18 03:01:41;;;;;;;7.60;6.80;;;13.70;41.70;;;;;;5052411;28;20041;-64
2022/04/18 03:04:08;;;;;;;6.90;6.22;;;13.70;41.80;;;;;;5052145;28;20499;-63
2022/04/18 03:06:33;;;;;;;7.95;6.55;;;13.70;41.80;;;;;;5051695;28;20048;-65
2022/04/18 03:08:59;;;;;;;7.05;6.13;;;13.60;41.80;;;;;;5051457;28;20045;-63
2022/04/18 03:11:25;;;;;;;7.75;6.32;;;13.60;41.80;;;;;;5053179;28;20394;-60
2022/04/18 03:13:50;;;;;;;7.82;6.43;;;13.60;41.80;;;;;;5051920;28;20481;-63
2022/04/18 03:16:18;;;;;;;7.32;6.55;;;13.60;41.80;;;;;;5051754;28;20048;-62
2022/04/18 03:18:44;;;;;;;7.93;6.45;;;13.60;41.80;;;;;;5051872;28;20049;-64
2022/04/18 03:21:10;;;;;;;7.28;6.57;;;13.60;41.80;;;;;;5051783;28;20055;-63
2022/04/18 03:23:36;;;;;;;7.68;6.18;;;13.60;41.90;;;;;;5052969;28;20033;-64
2022/04/18 03:26:02;;;;;;;7.45;6.22;;;13.50;41.80;;;;;;5052758;28;20179;-61
2022/04/18 03:28:28;;;;;;;7.60;6.38;;;13.50;41.80;;;;;;5051906;28;20044;-65
2022/04/18 03:30:53;;;;;;;9.07;6.68;;;13.50;41.80;;;;;;5051715;28;20378;-63
2022/04/18 03:33:19;;;;;;;7.78;6.90;;;13.50;41.80;;;;;;5051573;28;20044;-63
2022/04/18 03:41:16;;;;;;;7.43;6.63;;;13.50;41.90;;;;;;5051481;28;20052;-63
2022/04/18 03:43:42;;;;;;;7.03;6.15;;;13.50;42.00;;;;;;5052716;28;20036;-60
2022/04/18 03:46:08;;;;;;;6.93;6.07;;;13.50;42.00;;;;;;5051037;28;20041;-63
2022/04/18 03:48:34;;;;;;;7.13;6.50;;;13.50;42.00;;;;;;5051335;28;20044;-63
2022/04/18 03:51:00;;;;;;;7.70;6.40;;;13.40;42.00;;;;;;5050992;28;20057;-63
2022/04/18 03:53:25;;;;;;;7.63;6.53;;;13.40;42.00;;;;;;5052616;28;20029;-63
2022/04/18 03:55:51;;;;;;;8.02;6.53;;;13.40;42.00;;;;;;5051480;28;20384;-63
2022/04/18 03:58:16;;;;;;;5.95;5.38;;;13.40;42.00;;;;;;5051084;28;20098;-63
2022/04/18 04:00:42;;;;;;;8.35;7.20;;;13.40;42.00;;;;;;5051120;28;20047;-63
2022/04/18 04:03:09;;;;;;;7.80;6.40;;;13.50;42.10;;;;;;5052326;28;20045;-61
2022/04/18 04:05:35;;;;;;;7.60;6.10;;;13.40;42.90;;;;;;5051257;28;20049;-63
2022/04/18 04:08:00;;;;;;;7.53;5.97;;;13.40;42.10;;;;;;5052365;28;20040;-62
2022/04/18 04:10:29;;;;;;;8.15;6.25;;;13.30;42.00;;;;;;5051229;28;20044;-65
2022/04/18 04:12:57;;;;;;;7.22;6.60;;;13.30;42.00;;;;;;5050811;28;20036;-63
2022/04/18 04:15:23;;;;;;;8.43;6.40;;;13.30;42.00;;;;;;5050761;28;20051;-63
2022/04/18 04:17:49;;;;;;;7.45;6.55;;;13.30;42.10;;;;;;5052438;28;20076;-63
2022/04/18 04:20:15;;;;;;;7.15;6.32;;;13.40;42.10;;;;;;5050707;28;20068;-60
2022/04/18 04:22:45;;;;;;;8.73;6.50;;;13.30;42.00;;;;;;5051978;28;20038;-63
2022/04/18 04:25:13;;;;;;;7.70;6.90;;;13.30;42.10;;;;;;5050767;28;20049;-63
2022/04/18 04:27:39;;;;;;;7.20;6.32;;;13.30;42.10;;;;;;5050766;28;20472;-64
2022/04/18 04:30:05;;;;;;;9.02;7.15;;;13.30;42.10;;;;;;5052034;28;20057;-63
2022/04/18 04:32:31;;;;;;;8.30;6.97;;;13.20;42.00;;;;;;5050813;28;20444;-62
2022/04/18 04:34:56;;;;;;;7.47;6.68;;;13.20;42.00;;;;;;5050805;28;20041;-64
2022/04/18 04:37:22;;;;;;;6.80;6.20;;;13.20;42.10;;;;;;5051797;28;20041;-63
2022/04/18 04:39:47;;;;;;;7.40;6.70;;;13.20;42.10;;;;;;5049675;28;20445;-63
2022/04/18 04:42:14;;;;;;;7.18;6.45;;;13.20;42.10;;;;;;5050581;28;20053;-64
2022/04/18 04:44:40;;;;;;;7.15;6.28;;;13.20;42.10;;;;;;5050150;28;20551;-63
2022/04/18 04:47:06;;;;;;;6.60;6.00;;;13.20;42.10;;;;;;5050393;28;20045;-63
2022/04/18 04:49:32;;;;;;;7.38;6.18;;;13.20;42.10;;;;;;5050280;28;20123;-63
2022/04/18 04:51:57;;;;;;;7.07;6.38;;;13.20;42.10;;;;;;5050343;28;20045;-64
2022/04/18 04:54:23;;;;;;;7.13;6.43;;;13.20;42.10;;;;;;5050557;28;20106;-63
2022/04/18 04:56:49;;;;;;;7.10;6.40;;;13.20;42.10;;;;;;5051669;28;20577;-63
2022/04/18 04:59:15;;;;;;;6.65;5.75;;;13.20;42.10;;;;;;5051680;28;20029;-63
2022/04/18 05:01:40;;;;;;;7.20;6.50;;;13.20;42.10;;;;;;5050610;28;20041;-63
2022/04/18 05:04:06;;;;;;;6.95;6.22;;;13.20;42.10;;;;;;5050147;28;20492;-63
2022/04/18 05:06:31;;;;;;;7.15;5.90;;;13.20;42.10;;;;;;5050174;28;20044;-63
2022/04/18 05:08:57;;;;;;;7.40;6.53;;;13.20;42.10;;;;;;5051429;28;20037;-63
2022/04/18 05:11:23;;;;;;;7.30;6.60;;;13.20;42.10;;;;;;5051705;28;20072;-63
2022/04/18 05:13:48;;;;;;;8.05;7.03;;;13.20;42.10;;;;;;5050427;28;20033;-63
2022/04/18 05:16:14;;;;;;;6.82;6.13;;;13.20;42.10;;;;;;5050112;28;20049;-63
2022/04/18 05:18:40;;;;;;;7.50;6.38;;;13.20;42.10;;;;;;5051403;28;20037;-60
2022/04/18 05:21:05;;;;;;;6.85;6.15;;;13.20;42.10;;;;;;5050528;28;20033;-63
2022/04/18 05:23:31;;;;;;;6.47;5.80;;;13.20;42.10;;;;;;5049445;28;20041;-60
2022/04/18 05:25:57;;;;;;;7.45;6.18;;;13.20;42.10;;;;;;5049956;28;20045;-63
2022/04/18 05:28:22;;;;;;;6.85;6.13;;;13.20;42.10;;;;;;5051537;28;20040;-63
2022/04/18 05:30:48;;;;;;;7.80;6.97;;;13.20;42.10;;;;;;5050182;28;20124;-65
2022/04/18 05:33:14;;;;;;;7.57;6.72;;;13.20;42.80;;;;;;5054063;28;20044;-61
2022/04/18 05:35:39;;;;;;;8.07;6.50;;;13.20;42.10;;;;;;5053782;28;20114;-61
2022/04/18 05:38:05;;;;;;;8.07;6.45;;;13.20;42.10;;;;;;5053748;28;20045;-61
2022/04/18 05:40:31;;;;;;;6.38;5.75;;;13.20;42.10;;;;;;5054926;28;20058;-63
2022/04/18 05:42:57;;;;;;;8.07;5.60;;;13.20;42.10;;;;;;5055155;28;20416;-63
2022/04/18 05:45:23;;;;;;;7.13;6.40;;;13.20;42.10;;;;;;5054588;28;20057;-63
2022/04/18 05:47:49;;;;;;;9.05;6.60;;;13.20;42.10;;;;;;5054933;28;20611;-60
2022/04/18 05:50:15;;;;;;;7.40;6.70;;;13.20;42.10;;;;;;5053542;28;20135;-63
2022/04/18 05:52:40;;;;;;;8.20;6.32;;;13.20;42.10;;;;;;5053449;28;20047;-63
2022/04/18 05:55:06;;;;;;;8.63;6.57;;;13.20;42.10;;;;;;5054691;28;20044;-60
2022/04/18 05:57:32;;;;;;;7.43;5.88;;;13.20;42.10;;;;;;5053658;28;20072;-60
2022/04/18 06:00:01;;;;;;;8.70;6.75;;;13.20;42.10;;;;;;5054867;28;20456;-60
2022/04/18 06:02:26;;;;;;;6.32;5.63;;;13.20;42.10;;;;;;5053193;28;20037;-63
2022/04/18 06:04:53;;;;;;;7.25;6.10;;;13.20;42.10;;;;;;5053383;28;20049;-60
2022/04/18 06:07:18;;;;;;;7.00;6.30;;;13.20;42.00;;;;;;5053459;28;20041;-60
2022/04/18 06:09:44;;;;;;;6.35;5.72;;;13.20;42.10;;;;;;5053423;28;20103;-60
2022/04/18 06:12:10;;;;;;;6.82;6.13;;;13.20;42.00;;;;;;5053071;28;20369;-63
2022/04/18 06:14:35;;;;;;;7.00;6.40;;;13.20;42.00;;;;;;5053377;28;20048;-64
2022/04/18 06:17:01;;;;;;;6.03;5.43;;;13.20;42.00;;;;;;5053195;28;20049;-60
2022/04/18 06:19:26;;;;;;;6.82;6.13;;;13.30;42.00;;;;;;5053044;28;20049;-62
2022/04/18 06:21:52;;;;;;;8.13;5.65;;;13.20;42.00;;;;;;5054132;28;20087;-64
2022/04/18 06:24:21;;;;;;;7.20;5.97;;;13.30;42.00;;;;;;5053092;28;20608;-63
2022/04/18 06:26:46;;;;;;;6.25;5.63;;;13.30;42.00;;;;;;5054106;28;20112;-63
2022/04/18 06:29:15;;;;;;;7.15;6.45;;;13.30;42.00;;;;;;5053223;28;20045;-60
2022/04/18 06:31:41;;;;;;;6.70;6.07;;;13.30;41.90;;;;;;5053000;28;20389;-63
2022/04/18 06:34:06;;;;;;;8.07;6.45;;;13.30;41.90;;;;;;5052692;28;20048;-60
2022/04/18 06:36:32;;;;;;;6.90;6.20;;;13.30;41.90;;;;;;5053515;28;20045;-63
2022/04/18 06:38:57;;;;;;;5.88;5.28;;;13.30;41.90;;;;;;5053787;28;20041;-60
2022/04/18 06:41:23;;;;;;;7.63;5.72;;;13.30;41.80;;;;;;5054068;28;20060;-60
2022/04/18 06:43:52;;;;;;;8.50;6.35;;;13.40;41.90;;;;;;5053692;28;20481;-60
2022/04/18 06:46:17;;;;;;;6.28;5.60;;;13.40;41.80;;;;;;5052151;28;20053;-60
2022/04/18 06:48:43;;;;;;;6.40;5.70;;;13.40;41.80;;;;;;5053695;28;20481;-61
2022/04/18 06:51:08;;;;;;;6.32;5.72;;;13.40;41.70;;;;;;5053718;28;20037;-63
2022/04/18 06:53:34;;;;;;;6.95;5.95;;;13.40;41.70;;;;;;5052191;28;20041;-60
2022/04/18 06:58:45;;;;;;;6.07;5.47;;;13.50;41.70;;;;;;5053352;28;20052;-63
2022/04/18 07:01:14;;;;;;;7.00;5.13;;;13.50;41.70;;;;;;5051887;28;20354;-62
2022/04/18 07:03:40;;;;;;;5.45;4.97;;;13.50;41.60;;;;;;5053425;28;20041;-63
2022/04/18 07:06:05;;;;;;;7.72;5.80;;;13.50;41.60;;;;;;5053345;28;20516;-63
2022/04/18 07:08:31;;;;;;;7.10;5.65;;;13.60;41.60;;;;;;5051959;28;20041;-63
2022/04/18 07:10:56;;;;;;;6.93;6.18;;;13.60;41.50;;;;;;5052316;28;20048;-63
2022/04/18 07:13:22;;;;;;;7.28;5.68;;;13.50;41.50;;;;;;5052177;28;20548;-63
2022/04/18 07:15:48;;;;;;;5.72;5.15;;;13.60;41.50;;;;;;5051880;28;20079;-61
2022/04/18 07:18:13;;;;;;;6.00;5.30;;;13.60;41.50;;;;;;5052054;28;20048;-62
2022/04/18 07:20:41;;;;;;;6.43;5.55;;;13.60;41.40;;;;;;5052087;28;20366;-63
2022/04/18 07:23:07;;;;;;;6.60;5.15;;;13.60;41.40;;;;;;5051974;28;20040;-63
2022/04/18 07:25:33;;;;;;;6.60;5.65;;;13.70;41.40;;;;;;5052931;28;20362;-61
2022/04/18 07:27:58;;;;;;;5.93;5.20;;;13.70;41.30;;;;;;5053216;28;20044;-63
2022/04/18 07:30:29;;;;;;;7.07;5.65;;;13.70;41.30;;;;;;5051586;28;20558;-63
2022/04/18 07:32:55;;;;;;;6.45;5.53;;;13.70;41.30;;;;;;5052947;28;20186;-62
2022/04/18 07:35:23;;;;;;;9.50;6.13;;;13.80;41.30;;;;;;5051587;28;20098;-63
2022/04/18 07:38:48;;;;;;;6.45;5.32;;;13.80;41.20;;;;;;5052632;28;20076;-63
2022/04/18 07:40:34;;;;;;;6.40;5.03;;;13.80;41.10;;;;;;5052582;28;20396;-60
2022/04/18 07:43:00;;;;;;;6.13;5.45;;;13.80;41.10;;;;;;5051416;28;20049;-63
2022/04/18 07:45:26;;;;;;;6.00;4.95;;;13.80;41.10;;;;;;5051154;28;20099;-60
2022/04/18 07:47:52;;;;;;;5.50;4.95;;;13.90;41.10;;;;;;5051373;28;20563;-60
2022/04/18 07:50:18;;;;;;;5.57;4.82;;;13.90;41.10;;;;;;5051394;28;20047;-64
2022/04/18 07:52:44;;;;;;;6.03;5.18;;;13.90;41.10;;;;;;5051278;28;20472;-60
2022/04/18 07:55:10;;;;;;;5.18;4.25;;;13.90;41.00;;;;;;5034060;28;20049;-63
2022/04/18 07:57:37;;;;;;;4.78;4.03;;;13.90;40.90;;;;;;5052585;28;20144;-60
2022/04/18 08:00:06;;;;;;;8.27;5.38;;;14.00;41.00;;;;;;5051389;28;20086;-63
2022/04/18 08:02:34;;;;;;;4.60;4.18;;;13.90;40.90;;;;;;5052359;28;20045;-60
2022/04/18 08:05:00;;;;;;;5.03;4.32;;;14.00;40.90;;;;;;5051103;28;20124;-63
2022/04/18 08:07:30;;;;;;;5.60;4.93;;;14.00;40.90;;;;;;5051298;28;20103;-63
2022/04/18 08:09:55;;;;;;;6.43;4.75;;;14.00;40.90;;;;;;5051551;28;20052;-64
2022/04/18 08:12:21;;;;;;;5.28;3.95;;;14.00;40.90;;;;;;5052161;28;20033;-60
2022/04/18 08:14:47;;;;;;;5.60;4.80;;;14.10;40.90;;;;;;5050714;28;20231;-63
2022/04/18 08:17:12;;;;;;;5.43;4.88;;;14.10;40.90;;;;;;5050805;28;20041;-60
2022/04/18 08:19:41;;;;;;;6.35;5.32;;;14.10;40.90;;;;;;5052036;28;20120;-63
2022/04/18 08:22:06;;;;;;;5.35;4.60;;;14.10;40.90;;;;;;5052220;28;20032;-60
2022/04/18 08:24:32;;;;;;;5.05;4.47;;;14.10;40.80;;;;;;5052009;28;20553;-60
2022/04/18 08:26:58;;;;;;;4.88;4.38;;;14.10;40.70;;;;;;5051928;28;20048;-60
2022/04/18 08:29:24;;;;;;;5.50;4.05;;;14.20;40.80;;;;;;5052061;28;20037;-60
2022/04/18 08:31:50;;;;;;;5.07;4.13;;;14.20;40.60;;;;;;5051962;28;20045;-60
2022/04/18 08:34:17;;;;;;;5.22;3.67;;;14.30;40.60;;;;;;5050566;28;20044;-60
2022/04/18 08:36:43;;;;;;;5.43;4.10;;;14.30;40.60;;;;;;5051796;28;20048;-63
2022/04/18 08:39:09;;;;;;;4.78;4.32;;;14.30;40.50;;;;;;5050469;28;20036;-60
2022/04/18 08:41:38;;;;;;;4.88;4.15;;;14.30;40.50;;;;;;5051662;28;20033;-63
2022/04/18 08:44:04;;;;;;;4.32;3.92;;;14.30;40.40;;;;;;5050466;28;20552;-64
2022/04/18 08:46:31;;;;;;;5.65;4.35;;;14.30;40.40;;;;;;5051611;28;20132;-60
2022/04/18 08:54:32;;;;;;;5.47;4.50;;;14.40;40.40;;;;;;5050366;28;20412;-60
2022/04/18 08:56:58;;;;;;;5.20;3.90;;;14.40;40.40;;;;;;5050318;28;20041;-61
2022/04/18 08:59:23;;;;;;;4.80;4.10;;;14.40;40.30;;;;;;5050601;28;20052;-63
2022/04/18 09:01:50;;;;;;;4.40;4.00;;;14.50;40.30;;;;;;5050232;28;20048;-63
2022/04/18 09:04:19;;;;;;;5.60;4.30;;;14.50;40.30;;;;;;5050151;28;20041;-63
2022/04/18 09:06:45;;;;;;;6.85;4.43;;;14.50;40.20;;;;;;5052161;28;20455;-60
2022/04/18 09:09:10;;;;;;;6.03;4.13;;;14.60;40.10;;;;;;5054569;28;20045;-60
2022/04/18 09:11:37;;;;;;;4.97;3.03;;;14.70;40.00;;;;;;5054215;28;20136;-63
2022/04/18 09:14:12;;;;;;;4.97;3.75;;;14.70;39.80;;;;;;5054260;28;20481;-63
2022/04/18 09:16:39;;;;;;;5.25;3.35;;;14.80;39.70;;;;;;5055231;28;20399;-63
2022/04/18 09:19:11;;;;;;;4.65;3.92;;;14.80;39.60;;;;;;5054386;28;20098;-60
2022/04/18 09:21:56;;;;;;;5.45;4.18;;;14.90;39.50;;;;;;5055343;28;20087;-63
2022/04/18 09:29:43;;;;;;;5.03;3.28;;;15.00;39.30;;;;;;5129364;27;20159;-62
2022/04/18 09:32:13;;;;;;;5.05;3.53;;;15.10;39.20;;;;;;5130497;28;20466;-64
2022/04/18 09:34:40;;;;;;;4.67;3.60;;;15.20;39.80;;;;;;5128997;28;20482;-64
2022/04/18 09:39:53;;;;;;;4.93;3.30;;;15.40;38.70;;;;;;5129081;27;20406;-64
2022/04/18 09:42:21;;;;;;;4.70;3.30;;;15.60;38.40;;;;;;5129265;28;20062;-64
2022/04/18 09:44:50;;;;;;;3.67;3.38;;;15.60;38.20;;;;;;5129180;28;20075;-64
2022/04/18 09:47:19;;;;;;;4.13;3.58;;;15.70;38.00;;;;;;5128866;28;20054;-61
2022/04/18 09:49:46;;;;;;;4.82;3.53;;;15.80;38.00;;;;;;5129093;28;20057;-64
2022/04/18 09:52:16;;;;;;;5.72;3.45;;;15.80;37.90;;;;;;5128718;28;20047;-62
2022/04/18 09:54:56;;;;;;;3.80;3.28;;;15.80;37.80;;;;;;5130206;27;20039;-61
2022/04/18 09:57:26;;;;;;;3.42;2.83;;;15.90;37.80;;;;;;5130266;27;20047;-62
2022/04/18 09:59:54;;;;;;;3.92;3.00;;;15.90;37.80;;;;;;5128906;28;20058;-63
2022/04/18 10:02:21;;;;;;;4.55;3.22;;;16.00;37.70;;;;;;5128683;28;20118;-64
2022/04/18 10:04:47;;;;;;;4.43;3.50;;;16.00;37.60;;;;;;5128734;28;20062;-64
2022/04/18 10:07:14;;;;;;;4.85;2.78;;;16.00;37.50;;;;;;5129839;27;20095;-63
2022/04/18 10:09:41;;;;;;;3.53;2.70;;;16.00;37.50;;;;;;5129870;27;20122;-64
2022/04/18 10:12:09;;;;;;;3.88;3.20;;;16.10;37.50;;;;;;5128668;28;20045;-63
2022/04/18 10:14:36;;;;;;;4.47;3.05;;;16.10;37.40;;;;;;5128582;28;20043;-62
2022/04/18 10:17:06;;;;;;;3.38;2.92;;;16.20;37.40;;;;;;5128611;28;20126;-64
2022/04/18 10:22:50;;;;;;;3.67;3.22;;;16.10;37.30;;;;;;5129180;27;20151;-64
2022/04/18 10:28:17;;;;;;;4.68;3.22;;;16.20;37.40;;;;;;5191390;27;104623;-60
2022/04/18 10:30:49;;;;;;;3.57;2.80;;;16.20;37.40;;;;;;5174187;27;20046;-64
2022/04/18 10:33:17;;;;;;;4.28;3.20;;;16.20;37.40;;;;;;5173949;27;20294;-64
2022/04/18 10:35:51;;;;;;;4.25;2.60;;;16.20;37.40;;;;;;5173137;27;20046;-66
2022/04/18 10:38:20;;;;;;;3.80;2.92;;;16.20;37.40;;;;;;5192621;27;20038;-64
2022/04/18 10:40:45;;;;;;;3.63;2.45;;;16.10;37.30;;;;;;5173750;27;20048;-62
2022/04/18 10:43:14;;;;;;;3.08;2.78;;;16.20;37.40;;;;;;5192611;27;20038;-60
2022/04/18 10:45:40;;;;;;;3.50;2.80;;;16.20;37.40;;;;;;5173749;27;20041;-63
2022/04/18 10:48:08;;;;;;;5.18;3.05;;;16.10;37.30;;;;;;5192400;27;20040;-63
2022/04/18 10:58:37;;;;;;;3.97;3.03;;;16.10;37.40;;;;;;5146197;27;20452;-64
2022/04/18 11:01:07;;;;;;;3.17;2.60;;;16.10;37.50;;;;;;5128302;28;20043;-64
2022/04/18 11:11:44;;;;;;;3.25;1.90;;;16.00;37.70;;;;;;5146320;27;20143;-61
2022/04/18 11:14:15;;;;;;;2.90;2.35;;;16.00;37.70;;;;;;5129161;28;20053;-64
2022/04/18 11:19:24;;;;;;;3.65;2.85;;;16.00;37.90;;;;;;5146373;27;20138;-63
2022/04/18 11:30:09;;;;;;;3.15;2.28;;;16.00;37.90;;;;;;5129162;27;20143;-64
2022/04/18 11:32:37;;;;;;;3.85;2.53;;;15.90;37.90;;;;;;5129206;28;20454;-66
2022/04/18 11:35:06;;;;;;;2.88;2.25;;;15.90;37.90;;;;;;5129250;28;20285;-62
2022/04/18 11:37:39;;;;;;;3.60;2.25;;;15.90;37.90;;;;;;5131095;27;20069;-64
2022/04/18 11:40:08;;;;;;;2.45;2.20;;;15.90;37.90;;;;;;5112962;28;20089;-63
2022/04/18 11:42:34;;;;;;;2.38;1.67;;;15.90;37.90;;;;;;5128804;28;20077;-63
2022/04/18 11:45:05;;;;;;;3.10;2.20;;;15.90;37.90;;;;;;5129035;28;20074;-61
2022/04/18 11:47:34;;;;;;;;;;;15.90;37.90;;;;;;5129141;28;20043;-64
2022/04/18 11:50:01;;;;;;;3.40;1.80;;;16.00;38.00;;;;;;5128579;28;19924;-64
2022/04/18 11:52:29;;;;;;;2.30;1.85;;;16.00;38.00;;;;;;5128981;28;20050;-64
2022/04/18 11:57:40;;;;;;;4.18;2.35;;;16.00;38.00;;;;;;5129103;27;20495;-64
2022/04/18 12:00:09;;;;;;;2.13;1.83;;;16.00;38.00;;;;;;5129199;28;20047;-61
2022/04/18 12:08:10;;;;;;;2.67;1.70;;;16.00;38.00;;;;;;5128601;28;20122;-65
2022/04/18 12:10:39;;;;;;;3.10;2.10;;;16.00;37.90;;;;;;5109668;28;20040;-64
2022/04/18 12:13:07;;;;;;;2.03;1.38;;;16.00;38.00;;;;;;5108116;28;20039;-63
2022/04/18 12:15:34;;;;;;;2.53;1.58;;;16.10;38.00;;;;;;5108091;28;20047;-64
2022/04/18 12:18:18;;;;;;;2.28;1.70;;;16.00;37.90;;;;;;5108103;28;20039;-64
2022/04/18 12:20:46;;;;;;;2.88;1.52;;;16.10;38.00;;;;;;5108103;28;20491;-60
2022/04/18 12:23:21;;;;;;;2.60;1.70;;;16.10;38.00;;;;;;5108020;28;20546;-63
2022/04/18 12:25:51;;;;;;;3.10;1.60;;;16.10;38.00;;;;;;5111496;28;20047;-67
2022/04/18 12:28:20;;;;;;;1.40;1.20;;;16.10;38.00;;;;;;5127460;28;20413;-65
2022/04/18 12:30:46;;;;;;;2.25;1.20;;;16.10;38.80;;;;;;5127511;28;20043;-65
2022/04/18 12:33:16;;;;;;;3.88;1.20;;;16.30;39.30;;;;;;5126938;28;20036;-66
2022/04/18 12:35:45;;;;;;;3.50;1.10;;;16.40;39.30;;;;;;5128424;28;20099;-64
2022/04/18 12:38:12;;;;;;;3.05;0.93;;;16.40;39.00;;;;;;5128445;28;20514;-61
2022/04/18 12:43:17;;;;;;;3.70;1.20;;;16.40;38.80;;;;;;5146227;27;20500;-64
2022/04/18 12:45:49;;;;;;;1.40;1.00;;;16.40;38.70;;;;;;5129029;28;20487;-64
2022/04/18 12:51:07;;;;;;;1.75;1.23;;;16.40;38.60;;;;;;5146319;27;20151;-64
2022/04/18 12:53:50;;;;;;;1.10;0.70;;;16.40;38.60;;;;;;5128949;28;20494;-62
2022/04/18 12:56:20;;;;;;;1.30;0.80;;;16.40;38.60;;;;;;5146174;27;20050;-64
2022/04/18 12:58:47;;;;;;;2.35;0.80;;;16.40;38.60;;;;;;5128938;28;20050;-65
2022/04/18 13:01:34;;;;;;;2.13;0.90;;;16.40;38.60;;;;;;5129115;28;20163;-61
2022/04/18 13:04:17;;;;;;;1.90;1.05;;;16.40;38.60;;;;;;5129946;27;20520;-65
2022/04/18 13:06:43;;;;;;;2.58;1.08;;;16.40;38.50;;;;;;5129002;28;20433;-65
2022/04/18 13:09:10;;;;;;;2.30;0.93;;;16.40;38.60;;;;;;5128588;28;20039;-65
2022/04/18 13:14:15;;;;;;;1.45;0.68;;;16.40;38.60;;;;;;5128373;27;20483;-64
2022/04/18 13:16:42;;;;;;;1.98;0.90;;;16.40;38.60;;;;;;5129014;28;20223;-65
2022/04/18 13:21:47;;;;;;;1.70;0.75;;;16.40;38.60;;;;;;5146372;27;20139;-65
2022/04/18 13:24:13;;;;;;;1.55;0.70;;;16.50;38.60;;;;;;5146528;27;20050;-65
2022/04/18 13:26:38;;;;;;;1.30;0.68;;;16.40;38.50;;;;;;5129083;28;20421;-67
2022/04/18 13:29:05;;;;;;;1.60;0.80;;;16.50;38.50;;;;;;5129203;28;20044;-62
2022/04/18 13:31:31;;;;;;;1.38;0.95;;;16.50;38.60;;;;;;5129035;28;20051;-64
2022/04/18 13:33:57;;;;;;;2.03;0.80;;;16.40;38.50;;;;;;5128866;28;20082;-64
2022/04/18 13:36:30;;;;;;;1.77;1.08;;;16.50;38.50;;;;;;5128732;28;20070;-64
2022/04/18 13:38:56;;;;;;;2.70;0.70;;;16.50;38.50;;;;;;5130010;27;20027;-66
2022/04/18 13:41:23;;;;;;;1.52;0.70;;;16.50;38.50;;;;;;5145782;27;20067;-64
2022/04/18 13:43:48;;;;;;;1.88;0.80;;;16.50;38.50;;;;;;5128679;28;20509;-66
2022/04/18 13:46:14;;;;;;;1.67;0.68;;;16.50;38.40;;;;;;5128571;28;20043;-65
2022/04/18 13:48:43;;;;;;;2.13;0.60;;;16.50;38.40;;;;;;5129984;27;20038;-63
2022/04/18 13:51:08;;;;;;;1.17;0.60;;;16.50;38.50;;;;;;5129831;27;20051;-65
2022/04/18 13:53:34;;;;;;;1.70;0.55;;;16.50;38.50;;;;;;5129679;27;20088;-64
2022/04/18 13:55:59;;;;;;;1.25;0.77;;;16.50;38.50;;;;;;5128602;28;20043;-64
2022/04/18 13:58:25;;;;;;;1.73;0.80;;;16.50;38.50;;;;;;5128363;28;20046;-64
2022/04/18 14:00:51;;;;;;;1.67;0.65;;;16.50;38.40;;;;;;5129591;27;20122;-62
2022/04/18 14:03:19;;;;;;;1.60;0.73;;;16.50;38.50;;;;;;5129526;27;20194;-64
2022/04/18 14:05:45;;;;;;;3.15;0.68;;;16.50;38.40;;;;;;5128593;28;20043;-65
2022/04/18 14:08:12;;;;;;;1.00;0.65;;;16.60;38.50;;;;;;5128067;28;20372;-64
2022/04/18 14:10:38;;;;;;;1.80;1.00;;;16.60;38.50;;;;;;5128071;28;20051;-65